Time,TemperatureF,DewpointF,PressureIn,WindDirection,WindDirectionDegrees,WindSpeedMPH,WindSpeedGustMPH,Humidity,HourlyPrecipIn,Conditions,Clouds,dailyrainin,SolarRadiationWatts/m^2,SoftwareType,DateUTC
2013-01-13 00:00:00,36.2,34.9,30.08,ESE,122,1.0,5.0,95,0.00,BKN,,0.00,0.0,WeatherDisplay:10.37,2013-01-13 05:00:00,
2013-01-13 00:03:00,36.0,34.7,30.08,SE,124,2.3,2.3,95,0.00,BKN,,0.00,0.0,WeatherDisplay:10.37,2013-01-13 05:03:00,
2013-01-13 00:04:00,35.9,34.6,30.08,SE,124,2.3,2.3,95,0.00,BKN,,0.00,0.0,WeatherDisplay:10.37,2013-01-13 05:04:00,
2013-01-13 00:09:00,35.2,33.6,30.08,SE,124,0.0,0.0,94,0.00,BKN,,0.00,0.0,WeatherDisplay:10.37,2013-01-13 05:09:00,
2013-01-13 00:14:00,34.9,33.6,30.08,SE,124,0.0,0.0,95,0.00,BKN,,0.00,0.0,WeatherDisplay:10.37,2013-01-13 05:14:00,
2013-01-13 00:19:00,34.6,33.3,30.08,SE,124,0.0,0.0,95,0.00,BKN,,0.00,0.0,WeatherDisplay:10.37,2013-01-13 05:19:00,
2013-01-13 00:24:00,34.4,33.1,30.08,ESE,103,4.0,4.0,95,0.00,BKN,,0.00,0.0,WeatherDisplay:10.37,2013-01-13 05:24:00,
2013-01-13 00:29:00,34.6,33.3,30.08,ENE,73,1.0,1.0,95,0.00,BKN,,0.00,0.0,WeatherDisplay:10.37,2013-01-13 05:29:00,
2013-01-13 00:34:00,35.2,33.9,30.08,ENE,75,3.5,3.5,95,0.00,BKN,,0.00,0.0,WeatherDisplay:10.37,2013-01-13 05:34:00,
2013-01-13 00:39:00,35.3,34.0,30.08,ENE,75,1.1,0.0,95,0.00,BKN,,0.00,0.0,WeatherDisplay:10.37,2013-01-13 05:39:00,
2013-01-13 00:44:00,35.3,34.0,30.08,ESE,114,5.0,5.0,95,0.00,BKN,,0.00,0.0,WeatherDisplay:10.37,2013-01-13 05:44:00,
2013-01-13 00:49:00,35.8,34.5,30.08,ESE,116,1.1,1.1,95,0.00,BKN,,0.00,0.0,WeatherDisplay:10.37,2013-01-13 05:49:00,
2013-01-13 00:54:00,35.9,34.6,30.08,East,86,4.0,4.0,95,0.00,BKN,,0.00,0.0,WeatherDisplay:10.37,2013-01-13 05:54:00,
2013-01-13 00:59:00,37.2,36.2,30.07,ENE,63,5.8,5.8,96,0.00,BKN,,0.00,0.0,WeatherDisplay:10.37,2013-01-13 05:59:00,
2013-01-13 01:04:00,37.9,36.9,30.07,ENE,67,3.5,3.5,96,0.00,BKN,,0.00,0.0,WeatherDisplay:10.37,2013-01-13 06:04:00,
2013-01-13 01:09:00,38.2,37.2,30.07,East,86,5.0,5.0,96,0.00,BKN,,0.00,0.0,WeatherDisplay:10.37,2013-01-13 06:09:00,
2013-01-13 01:14:00,38.8,37.8,30.06,East,87,3.5,3.5,96,0.00,BKN,,0.00,0.0,WeatherDisplay:10.37,2013-01-13 06:14:00,
2013-01-13 01:19:00,39.1,38.1,30.06,East,87,5.0,5.0,96,0.00,BKN,,0.00,0.0,WeatherDisplay:10.37,2013-01-13 06:19:00,
2013-01-13 01:24:00,39.5,38.5,30.06,ESE,104,4.6,4.6,96,0.00,OVC,,0.00,0.0,WeatherDisplay:10.37,2013-01-13 06:24:00,
2013-01-13 01:29:00,39.6,38.6,30.06,ESE,113,4.0,4.0,96,0.00,OVC,,0.00,0.0,WeatherDisplay:10.37,2013-01-13 06:29:00,
2013-01-13 01:34:00,39.6,38.6,30.06,East,80,7.0,7.0,96,0.00,OVC,,0.00,0.0,WeatherDisplay:10.37,2013-01-13 06:34:00,
2013-01-13 01:39:00,39.5,38.5,30.06,East,91,5.8,5.8,96,0.00,OVC,,0.00,0.0,WeatherDisplay:10.37,2013-01-13 06:39:00,
2013-01-13 01:44:00,39.3,38.3,30.06,ENE,66,4.0,4.0,96,0.00,OVC,,0.00,0.0,WeatherDisplay:10.37,2013-01-13 06:44:00,
2013-01-13 01:49:00,39.2,38.2,30.06,ENE,65,3.5,3.5,96,0.00,OVC,,0.00,0.0,WeatherDisplay:10.37,2013-01-13 06:49:00,
2013-01-13 01:54:00,39.2,38.2,30.06,ENE,73,3.5,3.5,96,0.00,OVC,,0.00,0.0,WeatherDisplay:10.37,2013-01-13 06:54:00,
2013-01-13 01:59:00,39.3,38.3,30.06,NE,40,4.6,0.0,96,0.00,OVC,,0.00,0.0,WeatherDisplay:10.37,2013-01-13 06:59:00,
2013-01-13 02:04:00,39.3,38.3,30.06,East,82,5.0,5.0,96,0.00,OVC,,0.00,0.0,WeatherDisplay:10.37,2013-01-13 07:04:00,
2013-01-13 02:09:00,39.5,38.5,30.06,East,83,2.3,2.3,96,0.00,OVC,,0.00,0.0,WeatherDisplay:10.37,2013-01-13 07:09:00,
2013-01-13 02:14:00,39.5,38.5,30.06,ENE,59,4.6,4.6,96,0.00,BKN,,0.00,0.0,WeatherDisplay:10.37,2013-01-13 07:14:00,
2013-01-13 02:19:00,39.5,38.5,30.06,East,87,7.0,7.0,96,0.00,BKN,,0.00,0.0,WeatherDisplay:10.37,2013-01-13 07:19:00,
2013-01-13 02:24:00,39.9,38.9,30.06,East,101,4.0,4.0,96,0.00,BKN,,0.00,0.0,WeatherDisplay:10.37,2013-01-13 07:24:00,
2013-01-13 02:29:00,40.1,39.1,30.05,East,85,7.0,7.0,96,0.00,BKN,,0.00,0.0,WeatherDisplay:10.37,2013-01-13 07:29:00,
2013-01-13 02:34:00,39.9,38.9,30.05,East,80,10.4,10.4,96,0.00,BKN,,0.00,0.0,WeatherDisplay:10.37,2013-01-13 07:34:00,
2013-01-13 02:39:00,39.9,38.9,30.05,ESE,120,6.0,6.0,96,0.00,BKN,,0.00,0.0,WeatherDisplay:10.37,2013-01-13 07:39:00,
2013-01-13 02:44:00,40.1,39.1,30.05,ESE,111,12.0,12.0,96,0.00,SCT,,0.00,0.0,WeatherDisplay:10.37,2013-01-13 07:44:00,
2013-01-13 02:49:00,39.9,38.9,30.05,ENE,75,7.0,7.0,96,0.00,SCT,,0.00,0.0,WeatherDisplay:10.37,2013-01-13 07:49:00,
2013-01-13 02:54:00,39.8,38.8,30.05,ENE,68,5.8,5.8,96,0.00,SCT,,0.00,0.0,WeatherDisplay:10.37,2013-01-13 07:54:00,
2013-01-13 02:59:00,39.6,38.6,30.05,ESE,104,7.0,7.0,96,0.00,SCT,,0.00,0.0,WeatherDisplay:10.37,2013-01-13 07:59:00,
2013-01-13 03:04:00,39.6,38.6,30.05,ENE,73,10.4,10.4,96,0.00,SCT,,0.00,0.0,WeatherDisplay:10.37,2013-01-13 08:04:00,
2013-01-13 03:09:00,39.5,38.5,30.05,ESE,104,10.4,10.4,96,0.00,SCT,,0.00,0.0,WeatherDisplay:10.37,2013-01-13 08:09:00,
2013-01-13 03:14:00,39.3,38.3,30.05,ESE,113,7.0,7.0,96,0.00,SCT,,0.00,0.0,WeatherDisplay:10.37,2013-01-13 08:14:00,
2013-01-13 03:19:00,39.3,38.3,30.05,East,85,6.9,6.9,96,0.00,SCT,,0.00,0.0,WeatherDisplay:10.37,2013-01-13 08:19:00,
2013-01-13 03:24:00,39.2,38.2,30.05,ESE,122,10.0,10.0,96,0.00,BKN,,0.00,0.0,WeatherDisplay:10.37,2013-01-13 08:24:00,
2013-01-13 03:29:00,39.2,38.2,30.05,East,94,4.0,4.0,96,0.00,BKN,,0.00,0.0,WeatherDisplay:10.37,2013-01-13 08:29:00,
2013-01-13 03:34:00,39.2,38.2,30.05,ESE,107,9.2,9.2,96,0.00,BKN,,0.00,0.0,WeatherDisplay:10.37,2013-01-13 08:34:00,
2013-01-13 03:39:00,39.2,38.2,30.05,East,100,10.4,10.4,96,0.00,BKN,,0.00,0.0,WeatherDisplay:10.37,2013-01-13 08:39:00,
2013-01-13 03:44:00,39.2,38.2,30.04,ESE,108,11.5,11.5,96,0.00,BKN,,0.00,0.0,WeatherDisplay:10.37,2013-01-13 08:44:00,
2013-01-13 03:49:00,39.1,38.1,30.04,ESE,108,10.4,10.4,96,0.00,BKN,,0.00,0.0,WeatherDisplay:10.37,2013-01-13 08:49:00,
2013-01-13 03:54:00,39.1,38.1,30.04,ESE,121,7.0,7.0,96,0.00,BKN,,0.00,0.0,WeatherDisplay:10.37,2013-01-13 08:54:00,
2013-01-13 03:59:00,38.9,37.9,30.04,ESE,109,5.0,5.0,96,0.00,BKN,,0.00,0.0,WeatherDisplay:10.37,2013-01-13 08:59:00,
2013-01-13 04:04:00,38.9,37.9,30.04,SE,142,5.8,5.8,96,0.00,BKN,,0.00,0.0,WeatherDisplay:10.37,2013-01-13 09:04:00,
2013-01-13 04:09:00,38.9,37.9,30.04,East,86,5.0,5.0,96,0.00,BKN,,0.00,0.0,WeatherDisplay:10.37,2013-01-13 09:09:00,
2013-01-13 04:14:00,38.9,37.9,30.04,East,85,6.9,6.9,96,0.00,OVC,,0.00,0.0,WeatherDisplay:10.37,2013-01-13 09:14:00,
2013-01-13 04:19:00,38.8,37.8,30.04,East,87,9.0,9.0,96,0.00,OVC,,0.00,0.0,WeatherDisplay:10.37,2013-01-13 09:19:00,
2013-01-13 04:24:00,38.8,37.8,30.04,ENE,78,9.2,9.2,96,0.00,OVC,,0.00,0.0,WeatherDisplay:10.37,2013-01-13 09:24:00,
2013-01-13 04:29:00,38.9,37.9,30.03,ESE,109,6.9,6.9,96,0.00,OVC,,0.00,0.0,WeatherDisplay:10.37,2013-01-13 09:29:00,
2013-01-13 04:34:00,38.9,37.9,30.03,ESE,111,10.4,10.4,96,0.00,OVC,,0.00,0.0,WeatherDisplay:10.37,2013-01-13 09:34:00,
2013-01-13 04:39:00,38.9,37.9,30.03,East,87,9.0,9.0,96,0.00,OVC,,0.00,0.0,WeatherDisplay:10.37,2013-01-13 09:39:00,
2013-01-13 04:44:00,39.1,38.1,30.01,East,85,7.0,7.0,96,0.00,OVC,,0.00,0.0,WeatherDisplay:10.37,2013-01-13 09:44:00,
2013-01-13 04:49:00,39.2,38.2,30.01,ESE,104,10.4,10.4,96,0.00,OVC,,0.00,0.0,WeatherDisplay:10.37,2013-01-13 09:49:00,
2013-01-13 04:54:00,39.2,38.2,30.01,ESE,117,8.1,8.1,96,0.00,OVC,,0.00,0.0,WeatherDisplay:10.37,2013-01-13 09:54:00,
2013-01-13 04:59:00,39.2,38.2,30.01,ESE,106,9.2,9.2,96,0.00,OVC,,0.00,0.0,WeatherDisplay:10.37,2013-01-13 09:59:00,
2013-01-13 05:04:00,39.3,38.3,30.01,ESE,119,4.0,4.0,96,0.00,OVC,,0.00,0.0,WeatherDisplay:10.37,2013-01-13 10:04:00,
2013-01-13 05:09:00,39.5,38.5,30.01,ESE,109,6.0,6.0,96,0.00,OVC,,0.00,0.0,WeatherDisplay:10.37,2013-01-13 10:09:00,
2013-01-13 05:14:00,39.5,38.5,30.02,East,100,6.9,6.9,96,0.00,OVC,,0.00,0.0,WeatherDisplay:10.37,2013-01-13 10:14:00,
2013-01-13 05:19:00,39.5,38.5,30.02,East,92,6.0,6.0,96,0.00,OVC,,0.00,0.0,WeatherDisplay:10.37,2013-01-13 10:19:00,
2013-01-13 05:24:00,39.5,38.5,30.02,ESE,109,11.5,11.5,96,0.00,OVC,,0.00,0.0,WeatherDisplay:10.37,2013-01-13 10:24:00,
2013-01-13 05:29:00,39.6,38.6,30.00,East,86,10.0,10.0,96,0.00,OVC,,0.00,0.0,WeatherDisplay:10.37,2013-01-13 10:29:00,
2013-01-13 05:34:00,39.8,38.8,30.00,ESE,117,9.0,9.0,96,0.00,OVC,,0.00,0.0,WeatherDisplay:10.37,2013-01-13 10:34:00,
2013-01-13 05:39:00,39.9,38.9,30.00,East,98,11.5,11.5,96,0.00,OVC,,0.00,0.0,WeatherDisplay:10.37,2013-01-13 10:39:00,
2013-01-13 05:44:00,39.9,38.9,29.99,East,92,10.4,10.4,96,0.00,OVC,,0.00,0.0,WeatherDisplay:10.37,2013-01-13 10:44:00,
2013-01-13 05:49:00,40.1,39.1,29.99,East,101,12.0,12.0,96,0.00,OVC,,0.00,0.0,WeatherDisplay:10.37,2013-01-13 10:49:00,
2013-01-13 05:54:00,39.9,38.9,29.99,East,83,12.0,12.0,96,0.00,OVC,,0.00,0.0,WeatherDisplay:10.37,2013-01-13 10:54:00,
2013-01-13 05:59:00,40.1,39.1,29.99,East,82,11.5,11.5,96,0.00,OVC,,0.00,0.0,WeatherDisplay:10.37,2013-01-13 10:59:00,
2013-01-13 06:04:00,40.1,39.1,29.99,ESE,111,11.5,11.5,96,0.00,OVC,,0.00,0.0,WeatherDisplay:10.37,2013-01-13 11:04:00,
2013-01-13 06:09:00,39.9,38.9,29.99,East,86,12.0,12.0,96,0.00,OVC,,0.00,0.0,WeatherDisplay:10.37,2013-01-13 11:09:00,
2013-01-13 06:14:00,39.9,38.9,29.98,East,87,11.5,11.5,96,0.00,BKN,,0.00,0.0,WeatherDisplay:10.37,2013-01-13 11:14:00,
2013-01-13 06:19:00,39.9,38.9,29.98,SE,128,10.4,10.4,96,0.00,BKN,,0.00,0.0,WeatherDisplay:10.37,2013-01-13 11:19:00,
2013-01-13 06:24:00,39.9,38.9,29.98,ESE,109,6.9,6.9,96,0.00,BKN,,0.00,0.0,WeatherDisplay:10.37,2013-01-13 11:24:00,
2013-01-13 06:29:00,39.9,38.9,29.99,ESE,108,10.4,10.4,96,0.00,BKN,,0.00,0.0,WeatherDisplay:10.37,2013-01-13 11:29:00,
2013-01-13 06:34:00,39.9,38.9,29.99,ESE,106,11.5,11.5,96,0.00,BKN,,0.00,0.0,WeatherDisplay:10.37,2013-01-13 11:34:00,
2013-01-13 06:39:00,40.1,39.1,29.99,ESE,113,14.0,14.0,96,0.00,BKN,,0.00,0.0,WeatherDisplay:10.37,2013-01-13 11:39:00,
2013-01-13 06:44:00,40.2,39.2,29.98,East,100,6.0,6.0,96,0.00,BKN,,0.00,0.0,WeatherDisplay:10.37,2013-01-13 11:44:00,
2013-01-13 06:49:00,40.3,39.3,29.98,East,87,11.5,11.5,96,0.00,BKN,,0.00,0.0,WeatherDisplay:10.37,2013-01-13 11:49:00,
2013-01-13 06:54:00,40.3,39.3,29.98,ESE,121,12.0,12.0,96,0.00,BKN,,0.00,0.0,WeatherDisplay:10.37,2013-01-13 11:54:00,
2013-01-13 06:59:00,40.5,39.4,29.98,ESE,108,11.5,11.5,96,0.00,BKN,,0.00,0.0,WeatherDisplay:10.37,2013-01-13 11:59:00,
2013-01-13 07:04:00,40.5,39.4,29.98,ESE,117,14.0,14.0,96,0.00,BKN,,0.00,0.0,WeatherDisplay:10.37,2013-01-13 12:04:00,
2013-01-13 07:09:00,40.5,39.4,29.98,ESE,115,13.0,13.0,96,0.00,BKN,,0.00,0.0,WeatherDisplay:10.37,2013-01-13 12:09:00,
2013-01-13 07:14:00,40.3,39.3,29.98,ESE,104,10.4,10.4,96,0.00,OVC,,0.00,0.0,WeatherDisplay:10.37,2013-01-13 12:14:00,
2013-01-13 07:19:00,40.2,39.2,29.98,NE,54,12.7,12.7,96,0.00,OVC,,0.00,0.0,WeatherDisplay:10.37,2013-01-13 12:19:00,
2013-01-13 07:24:00,40.2,39.2,29.98,East,85,5.8,5.8,96,0.00,OVC,,0.00,0.0,WeatherDisplay:10.37,2013-01-13 12:24:00,
2013-01-13 07:29:00,40.2,39.2,29.99,ENE,76,5.0,5.0,96,0.00,OVC,,0.00,0.0,WeatherDisplay:10.37,2013-01-13 12:29:00,
2013-01-13 07:34:00,40.2,39.2,29.99,East,85,10.4,10.4,96,0.00,OVC,,0.00,0.0,WeatherDisplay:10.37,2013-01-13 12:34:00,
2013-01-13 07:39:00,40.2,39.2,29.99,East,91,8.1,8.1,96,0.00,OVC,,0.00,0.0,WeatherDisplay:10.37,2013-01-13 12:39:00,
2013-01-13 07:44:00,40.1,39.1,29.98,East,85,11.5,11.5,96,0.00,OVC,,0.00,7.0,WeatherDisplay:10.37,2013-01-13 12:44:00,
2013-01-13 07:49:00,39.9,38.9,29.98,ENE,64,11.5,11.5,96,0.00,OVC,,0.00,26.0,WeatherDisplay:10.37,2013-01-13 12:49:00,
2013-01-13 07:54:00,39.9,38.9,29.98,East,85,12.7,12.7,96,0.00,OVC,,0.00,39.0,WeatherDisplay:10.37,2013-01-13 12:54:00,
2013-01-13 07:59:00,39.9,38.9,29.98,ENE,72,10.4,10.4,96,0.00,OVC,,0.00,47.0,WeatherDisplay:10.37,2013-01-13 12:59:00,
2013-01-13 08:04:00,39.9,38.9,29.98,East,92,11.5,11.5,96,0.00,OVC,,0.00,39.0,WeatherDisplay:10.37,2013-01-13 13:04:00,
2013-01-13 08:09:00,39.9,38.9,29.98,East,85,7.0,7.0,96,0.00,OVC,,0.00,33.0,WeatherDisplay:10.37,2013-01-13 13:09:00,
2013-01-13 08:14:00,40.1,39.1,29.98,SE,124,11.5,11.5,96,0.00,OVC,,0.00,47.0,WeatherDisplay:10.37,2013-01-13 13:14:00,
2013-01-13 08:19:00,39.9,38.9,29.98,East,91,10.4,10.4,96,0.00,OVC,,0.00,39.0,WeatherDisplay:10.37,2013-01-13 13:19:00,
2013-01-13 08:24:00,39.9,38.9,29.98,ESE,104,11.5,11.5,96,0.00,OVC,,0.00,42.0,WeatherDisplay:10.37,2013-01-13 13:24:00,
2013-01-13 08:29:00,40.2,39.2,29.97,East,86,10.4,10.4,96,0.00,OVC,,0.00,67.0,WeatherDisplay:10.37,2013-01-13 13:29:00,
2013-01-13 08:34:00,40.5,39.4,29.97,East,87,12.0,12.0,96,0.00,OVC,,0.00,69.0,WeatherDisplay:10.37,2013-01-13 13:34:00,
2013-01-13 08:39:00,40.5,39.4,29.97,East,93,6.0,6.0,96,0.00,OVC,,0.00,49.0,WeatherDisplay:10.37,2013-01-13 13:39:00,
2013-01-13 08:44:00,40.5,39.4,29.97,ESE,109,11.0,11.0,96,0.00,OVC,,0.00,53.0,WeatherDisplay:10.37,2013-01-13 13:44:00,
2013-01-13 08:49:00,40.5,39.4,29.97,East,87,11.5,11.5,96,0.00,OVC,,0.00,58.0,WeatherDisplay:10.37,2013-01-13 13:49:00,
2013-01-13 08:54:00,40.6,39.5,29.97,ENE,63,7.0,7.0,96,0.00,OVC,,0.00,69.0,WeatherDisplay:10.37,2013-01-13 13:54:00,
2013-01-13 08:59:00,40.6,39.5,29.98,East,82,10.4,10.4,96,0.00,OVC,,0.00,83.0,WeatherDisplay:10.37,2013-01-13 13:59:00,
2013-01-13 09:04:00,40.6,39.5,29.98,ESE,104,13.8,13.8,96,0.00,OVC,,0.00,93.0,WeatherDisplay:10.37,2013-01-13 14:04:00,
2013-01-13 09:09:00,40.9,39.8,29.98,East,87,9.2,9.2,96,0.00,OVC,,0.00,107.0,WeatherDisplay:10.37,2013-01-13 14:09:00,
2013-01-13 09:14:00,41.1,40.0,29.97,ESE,120,8.1,8.1,96,0.00,OVC,,0.00,163.0,WeatherDisplay:10.37,2013-01-13 14:14:00,
2013-01-13 09:19:00,41.3,40.2,29.97,East,86,9.2,9.2,96,0.00,OVC,,0.00,216.0,WeatherDisplay:10.37,2013-01-13 14:19:00,
2013-01-13 09:24:00,41.6,40.5,29.97,East,87,9.2,9.2,96,0.00,OVC,,0.00,258.0,WeatherDisplay:10.37,2013-01-13 14:24:00,
2013-01-13 09:29:00,41.9,40.6,29.97,ESE,103,4.0,4.0,95,0.00,OVC,,0.00,227.0,WeatherDisplay:10.37,2013-01-13 14:29:00,
2013-01-13 09:34:00,42.3,41.0,29.97,NE,37,6.0,6.0,95,0.00,OVC,,0.00,221.0,WeatherDisplay:10.37,2013-01-13 14:34:00,
2013-01-13 09:40:00,42.6,41.3,29.97,NNE,30,3.5,3.5,95,0.00,OVC,,0.00,93.0,WeatherDisplay:10.37,2013-01-13 14:40:00,
2013-01-13 09:45:00,42.6,41.3,29.99,ENE,78,6.0,6.0,95,0.00,OVC,,0.00,128.0,WeatherDisplay:10.37,2013-01-13 14:45:00,
2013-01-13 09:50:00,42.6,41.3,29.99,NE,47,3.5,3.5,95,0.00,OVC,,0.00,128.0,WeatherDisplay:10.37,2013-01-13 14:50:00,
2013-01-13 09:55:00,42.8,41.5,29.99,NNE,21,4.0,4.0,95,0.00,OVC,,0.00,91.0,WeatherDisplay:10.37,2013-01-13 14:55:00,
2013-01-13 10:00:00,42.8,41.5,29.99,North,5,4.0,4.0,95,0.00,OVC,,0.00,83.0,WeatherDisplay:10.37,2013-01-13 15:00:00,
2013-01-13 10:05:00,42.8,41.2,29.99,NE,51,4.0,4.0,94,0.00,BKN,,0.00,95.0,WeatherDisplay:10.37,2013-01-13 15:05:00,
2013-01-13 10:10:00,42.9,41.3,29.99,East,99,4.6,4.6,94,0.00,BKN,,0.00,100.0,WeatherDisplay:10.37,2013-01-13 15:10:00,
2013-01-13 10:15:00,43.1,41.5,29.99,East,99,10.4,10.4,94,0.00,OVC,,0.00,146.0,WeatherDisplay:10.37,2013-01-13 15:15:00,
2013-01-13 10:20:00,43.5,41.9,29.99,East,100,11.5,11.5,94,0.00,OVC,,0.00,171.0,WeatherDisplay:10.37,2013-01-13 15:20:00,
2013-01-13 10:25:00,44.1,42.5,29.99,East,97,9.2,9.2,94,0.00,OVC,,0.00,54.0,WeatherDisplay:10.37,2013-01-13 15:25:00,
2013-01-13 10:30:00,44.3,42.4,29.98,East,87,6.0,6.0,93,0.00,OVC,,0.00,67.0,WeatherDisplay:10.37,2013-01-13 15:30:00,
2013-01-13 10:35:00,44.6,42.7,29.98,East,95,7.0,7.0,93,0.00,OVC,,0.00,97.0,WeatherDisplay:10.37,2013-01-13 15:35:00,
2013-01-13 10:40:00,45.1,43.2,29.97,SE,131,9.2,9.2,93,0.00,OVC,,0.00,81.0,WeatherDisplay:10.37,2013-01-13 15:40:00,
2013-01-13 10:45:00,45.1,42.9,29.97,East,100,7.0,7.0,92,0.00,OVC,,0.00,113.0,WeatherDisplay:10.37,2013-01-13 15:45:00,
2013-01-13 10:50:00,44.9,42.7,29.97,ESE,118,11.5,11.5,92,0.00,OVC,,0.00,146.0,WeatherDisplay:10.37,2013-01-13 15:50:00,
2013-01-13 10:55:00,44.9,42.7,29.97,East,85,9.2,9.2,92,0.00,OVC,,0.00,229.0,WeatherDisplay:10.37,2013-01-13 15:55:00,
2013-01-13 11:00:00,44.9,42.4,29.96,East,100,10.4,10.4,91,0.00,OVC,,0.00,155.0,WeatherDisplay:10.37,2013-01-13 16:00:00,
2013-01-13 11:05:00,44.6,42.1,29.96,SE,128,9.2,9.2,91,0.00,OVC,,0.00,109.0,WeatherDisplay:10.37,2013-01-13 16:05:00,
2013-01-13 11:10:00,44.6,41.8,29.96,ESE,111,10.0,10.0,90,0.00,OVC,,0.00,141.0,WeatherDisplay:10.37,2013-01-13 16:10:00,
2013-01-13 11:15:00,44.8,42.0,29.94,ESE,107,5.0,12.0,90,0.00,OVC,,0.00,174.0,WeatherDisplay:10.37,2013-01-13 16:15:00,
2013-01-13 11:20:00,44.9,42.1,29.94,East,85,11.5,11.5,90,0.00,OVC,,0.00,272.0,WeatherDisplay:10.37,2013-01-13 16:20:00,
2013-01-13 11:25:00,45.8,43.0,29.94,East,85,9.0,9.0,90,0.00,OVC,,0.00,503.0,WeatherDisplay:10.37,2013-01-13 16:25:00,
2013-01-13 11:30:00,46.2,43.1,29.93,ESE,116,10.4,10.4,89,0.00,OVC,,0.00,211.0,WeatherDisplay:10.37,2013-01-13 16:30:00,
2013-01-13 11:35:00,46.5,43.4,29.93,East,101,5.0,5.0,89,0.00,OVC,,0.00,206.0,WeatherDisplay:10.37,2013-01-13 16:35:00,
2013-01-13 11:40:00,46.8,43.4,29.93,East,87,7.0,7.0,88,0.00,OVC,,0.00,135.0,WeatherDisplay:10.37,2013-01-13 16:40:00,
2013-01-13 11:45:00,47.1,43.7,29.93,ESE,103,2.0,12.0,88,0.00,OVC,,0.00,137.0,WeatherDisplay:10.37,2013-01-13 16:45:00,
2013-01-13 11:50:00,47.3,43.9,29.93,NE,49,4.0,4.0,88,0.00,OVC,,0.00,192.0,WeatherDisplay:10.37,2013-01-13 16:50:00,
2013-01-13 11:55:00,47.6,43.9,29.93,ENE,77,4.0,4.0,87,0.00,OVC,,0.00,160.0,WeatherDisplay:10.37,2013-01-13 16:55:00,
2013-01-13 12:00:00,47.7,44.0,29.92,East,79,1.1,1.1,87,0.00,OVC,,0.00,167.0,WeatherDisplay:10.37,2013-01-13 17:00:00,
2013-01-13 12:05:00,47.9,43.9,29.92,East,85,2.3,2.3,86,0.00,OVC,,0.00,165.0,WeatherDisplay:10.37,2013-01-13 17:05:00,
2013-01-13 12:10:00,48.2,44.2,29.92,ENE,68,4.0,4.0,86,0.00,OVC,,0.00,200.0,WeatherDisplay:10.37,2013-01-13 17:10:00,
2013-01-13 12:15:00,48.2,44.2,29.92,ENE,73,5.0,5.0,86,0.00,OVC,,0.00,216.0,WeatherDisplay:10.37,2013-01-13 17:15:00,
2013-01-13 12:20:00,48.8,44.8,29.92,ENE,71,4.0,4.0,86,0.00,OVC,,0.00,193.0,WeatherDisplay:10.37,2013-01-13 17:20:00,
2013-01-13 12:25:00,49.4,45.4,29.92,ESE,118,5.0,5.0,86,0.00,OVC,,0.00,232.0,WeatherDisplay:10.37,2013-01-13 17:25:00,
2013-01-13 12:30:00,51.1,47.4,29.91,East,101,6.0,12.0,87,0.00,OVC,,0.00,230.0,WeatherDisplay:10.37,2013-01-13 17:30:00,
2013-01-13 12:35:00,52.5,48.7,29.91,SE,141,11.5,11.5,87,0.00,OVC,,0.00,214.0,WeatherDisplay:10.37,2013-01-13 17:35:00,
2013-01-13 12:40:00,53.3,49.2,29.91,ESE,119,11.5,11.5,86,0.00,OVC,,0.00,179.0,WeatherDisplay:10.37,2013-01-13 17:40:00,
2013-01-13 12:45:00,53.8,49.4,29.89,SE,140,12.0,12.0,85,0.00,OVC,,0.00,195.0,WeatherDisplay:10.37,2013-01-13 17:45:00,
2013-01-13 12:50:00,53.9,49.2,29.89,East,99,10.4,10.4,84,0.00,OVC,,0.00,178.0,WeatherDisplay:10.37,2013-01-13 17:50:00,
2013-01-13 12:55:00,54.1,49.1,29.89,SE,144,7.0,7.0,83,0.00,OVC,,0.00,132.0,WeatherDisplay:10.37,2013-01-13 17:55:00,
2013-01-13 13:00:00,54.1,49.4,29.89,SE,133,11.0,11.0,84,0.00,OVC,,0.00,125.0,WeatherDisplay:10.37,2013-01-13 18:00:00,
2013-01-13 13:05:00,54.1,49.1,29.89,SE,130,5.0,5.0,83,0.00,OVC,,0.00,134.0,WeatherDisplay:10.37,2013-01-13 18:05:00,
2013-01-13 13:10:00,54.1,49.1,29.89,SSE,151,9.0,9.0,83,0.00,OVC,,0.00,174.0,WeatherDisplay:10.37,2013-01-13 18:10:00,
2013-01-13 13:15:00,54.2,49.5,29.87,South,170,5.0,5.0,84,0.00,FEW,,0.00,151.0,WeatherDisplay:10.37,2013-01-13 18:15:00,
2013-01-13 13:20:00,54.2,48.8,29.87,SE,139,10.4,10.4,82,0.00,FEW,,0.00,135.0,WeatherDisplay:10.37,2013-01-13 18:20:00,
2013-01-13 13:25:00,54.2,49.1,29.87,ESE,111,10.4,10.4,83,0.00,FEW,,0.00,167.0,WeatherDisplay:10.37,2013-01-13 18:25:00,
2013-01-13 13:30:00,54.4,49.3,29.89,SE,135,8.1,8.1,83,0.00,FEW,,0.00,144.0,WeatherDisplay:10.37,2013-01-13 18:30:00,
2013-01-13 13:35:00,54.4,49.3,29.89,SSE,149,12.0,12.0,83,0.00,FEW,,0.00,142.0,WeatherDisplay:10.37,2013-01-13 18:35:00,
2013-01-13 13:40:00,54.2,49.1,29.88,SSE,152,13.0,13.0,83,0.00,FEW,,0.00,139.0,WeatherDisplay:10.37,2013-01-13 18:40:00,
2013-01-13 13:45:00,53.9,48.9,29.88,SSE,150,11.5,11.5,83,0.00,FEW,,0.00,107.0,WeatherDisplay:10.37,2013-01-13 18:45:00,
2013-01-13 13:50:00,53.8,49.1,29.88,SSE,152,10.0,10.0,84,0.00,FEW,,0.00,97.0,WeatherDisplay:10.37,2013-01-13 18:50:00,
2013-01-13 13:55:00,53.9,49.2,29.88,ESE,119,5.0,5.0,84,0.00,FEW,,0.00,72.0,WeatherDisplay:10.37,2013-01-13 18:55:00,
2013-01-13 14:00:00,53.9,49.2,29.88,ESE,110,5.0,5.0,84,0.00,FEW,,0.00,132.0,WeatherDisplay:10.37,2013-01-13 19:00:00,
2013-01-13 14:05:00,54.1,49.4,29.88,SE,135,9.2,9.2,84,0.00,FEW,,0.00,125.0,WeatherDisplay:10.37,2013-01-13 19:05:00,
2013-01-13 14:10:00,54.2,49.5,29.88,ESE,118,5.0,5.0,84,0.00,FEW,,0.00,105.0,WeatherDisplay:10.37,2013-01-13 19:10:00,
2013-01-13 14:15:00,54.2,49.1,29.89,ESE,122,9.2,9.2,83,0.00,SCT,,0.00,111.0,WeatherDisplay:10.37,2013-01-13 19:15:00,
2013-01-13 14:20:00,54.2,49.1,29.89,SSE,156,7.0,7.0,83,0.00,SCT,,0.00,113.0,WeatherDisplay:10.37,2013-01-13 19:20:00,
2013-01-13 14:25:00,54.1,49.1,29.89,SSE,150,9.2,9.2,83,0.00,SCT,,0.00,127.0,WeatherDisplay:10.37,2013-01-13 19:25:00,
2013-01-13 14:30:00,53.9,48.9,29.89,SE,138,6.0,6.0,83,0.00,SCT,,0.00,113.0,WeatherDisplay:10.37,2013-01-13 19:30:00,
2013-01-13 14:35:00,54.1,49.4,29.89,ESE,120,11.5,11.5,84,0.00,SCT,,0.00,97.0,WeatherDisplay:10.37,2013-01-13 19:35:00,
2013-01-13 14:40:00,54.1,49.4,29.89,SE,143,9.2,9.2,84,0.00,SCT,,0.00,97.0,WeatherDisplay:10.37,2013-01-13 19:40:00,
2013-01-13 14:45:00,53.9,49.2,29.89,SSE,162,11.5,11.5,84,0.00,SCT,,0.00,98.0,WeatherDisplay:10.37,2013-01-13 19:45:00,
2013-01-13 14:50:00,53.9,49.2,29.89,SSE,151,11.0,11.0,84,0.00,SCT,,0.00,98.0,WeatherDisplay:10.37,2013-01-13 19:50:00,
2013-01-13 14:55:00,53.9,48.9,29.88,SE,145,12.0,12.0,83,0.00,SCT,,0.00,104.0,WeatherDisplay:10.37,2013-01-13 19:55:00,
2013-01-13 15:00:00,53.9,49.2,29.88,SE,145,8.1,8.1,84,0.00,SCT,,0.00,83.0,WeatherDisplay:10.37,2013-01-13 20:00:00,
2013-01-13 15:05:00,53.9,48.9,29.88,SE,138,7.0,7.0,83,0.00,SCT,,0.00,56.0,WeatherDisplay:10.37,2013-01-13 20:05:00,
2013-01-13 15:10:00,53.9,48.9,29.88,SSE,149,5.0,5.0,83,0.00,SCT,,0.00,65.0,WeatherDisplay:10.37,2013-01-13 20:10:00,
2013-01-13 15:15:00,53.9,49.2,29.89,SE,129,5.0,5.0,84,0.00,SCT,,0.00,69.0,WeatherDisplay:10.37,2013-01-13 20:15:00,
2013-01-13 15:20:00,53.8,49.1,29.89,ESE,103,5.0,5.0,84,0.00,SCT,,0.00,81.0,WeatherDisplay:10.37,2013-01-13 20:20:00,
2013-01-13 15:25:00,53.5,48.5,29.89,ESE,120,5.0,5.0,83,0.00,SCT,,0.00,74.0,WeatherDisplay:10.37,2013-01-13 20:25:00,
2013-01-13 15:30:00,52.9,47.6,29.90,East,87,3.5,3.5,82,0.00,SCT,,0.00,62.0,WeatherDisplay:10.37,2013-01-13 20:30:00,
2013-01-13 15:35:00,52.5,47.2,29.90,East,79,5.0,5.0,82,0.00,SCT,,0.00,51.0,WeatherDisplay:10.37,2013-01-13 20:35:00,
2013-01-13 15:40:00,51.9,46.6,29.90,East,86,4.0,4.0,82,0.00,SCT,,0.00,42.0,WeatherDisplay:10.37,2013-01-13 20:40:00,
2013-01-13 15:45:00,51.3,46.0,29.90,East,87,6.0,6.0,82,0.00,SCT,,0.00,42.0,WeatherDisplay:10.37,2013-01-13 20:45:00,
2013-01-13 15:50:00,50.8,45.8,29.90,NE,52,5.0,5.0,83,0.00,SCT,,0.00,42.0,WeatherDisplay:10.37,2013-01-13 20:50:00,
2013-01-13 15:55:00,49.9,44.6,29.90,NE,56,5.0,5.0,82,0.00,SCT,,0.00,33.0,WeatherDisplay:10.37,2013-01-13 20:55:00,
2013-01-13 16:00:00,49.4,44.1,29.90,East,87,3.5,3.5,82,0.00,SCT,,0.00,30.0,WeatherDisplay:10.37,2013-01-13 21:00:00,
2013-01-13 16:05:00,48.8,43.5,29.90,ENE,75,3.0,3.0,82,0.00,SCT,,0.00,26.0,WeatherDisplay:10.37,2013-01-13 21:05:00,
2013-01-13 16:10:00,48.3,43.4,29.91,ENE,67,3.5,3.5,83,0.00,SCT,,0.00,28.0,WeatherDisplay:10.37,2013-01-13 21:10:00,
2013-01-13 16:15:00,47.7,42.8,29.91,ENE,68,1.1,0.0,83,0.00,CLR,,0.00,30.0,WeatherDisplay:10.37,2013-01-13 21:15:00,
2013-01-13 16:20:00,47.4,42.5,29.91,SE,127,4.0,4.0,83,0.00,CLR,,0.00,32.0,WeatherDisplay:10.37,2013-01-13 21:20:00,
2013-01-13 16:25:00,47.0,42.4,29.91,SE,125,4.0,4.0,84,0.00,CLR,,0.00,28.0,WeatherDisplay:10.37,2013-01-13 21:25:00,
2013-01-13 16:30:00,46.5,42.2,29.92,ESE,123,4.0,4.0,85,0.00,CLR,,0.00,21.0,WeatherDisplay:10.37,2013-01-13 21:30:00,
2013-01-13 16:35:00,46.4,42.4,29.92,ESE,123,4.0,4.0,86,0.00,CLR,,0.00,14.0,WeatherDisplay:10.37,2013-01-13 21:35:00,
2013-01-13 16:40:00,46.2,42.2,29.92,ESE,120,4.0,4.0,86,0.00,CLR,,0.00,11.0,WeatherDisplay:10.37,2013-01-13 21:40:00,
2013-01-13 16:45:00,46.0,42.3,29.92,ESE,106,6.9,6.9,87,0.00,CLR,,0.00,5.0,WeatherDisplay:10.37,2013-01-13 21:45:00,
2013-01-13 16:50:00,45.7,42.1,29.92,ESE,110,7.0,7.0,87,0.00,CLR,,0.00,0.0,WeatherDisplay:10.37,2013-01-13 21:50:00,
2013-01-13 16:55:00,45.5,41.9,29.91,ESE,108,4.0,4.0,87,0.00,CLR,,0.00,0.0,WeatherDisplay:10.37,2013-01-13 21:55:00,
2013-01-13 17:00:00,45.5,42.2,29.91,ESE,107,2.3,2.3,88,0.00,CLR,,0.00,0.0,WeatherDisplay:10.37,2013-01-13 22:00:00,
2013-01-13 17:05:00,45.1,41.5,29.91,ESE,107,2.0,2.0,87,0.00,SCT,,0.00,0.0,WeatherDisplay:10.37,2013-01-13 22:05:00,
2013-01-13 17:10:00,44.5,40.9,29.92,ESE,113,4.0,4.0,87,0.00,SCT,,0.00,0.0,WeatherDisplay:10.37,2013-01-13 22:10:00,
2013-01-13 17:15:00,44.6,41.3,29.92,ESE,117,3.5,3.5,88,0.00,SCT,,0.00,0.0,WeatherDisplay:10.37,2013-01-13 22:15:00,
2013-01-13 17:20:00,44.6,41.6,29.92,SE,134,4.0,4.0,89,0.00,SCT,,0.00,0.0,WeatherDisplay:10.37,2013-01-13 22:20:00,
2013-01-13 17:25:00,44.6,41.8,29.93,East,101,1.1,1.1,90,0.00,SCT,,0.00,0.0,WeatherDisplay:10.37,2013-01-13 22:25:00,
2013-01-13 17:30:00,44.9,42.1,29.93,ENE,65,2.3,2.3,90,0.00,SCT,,0.00,0.0,WeatherDisplay:10.37,2013-01-13 22:30:00,
2013-01-13 17:35:00,44.9,42.1,29.93,ENE,69,1.1,0.0,90,0.00,SCT,,0.00,0.0,WeatherDisplay:10.37,2013-01-13 22:35:00,
2013-01-13 17:40:00,44.9,42.1,29.93,ENE,69,3.0,3.0,90,0.00,SCT,,0.00,0.0,WeatherDisplay:10.37,2013-01-13 22:40:00,
2013-01-13 17:45:00,44.8,42.0,29.94,ENE,70,3.5,3.5,90,0.00,SCT,,0.00,0.0,WeatherDisplay:10.37,2013-01-13 22:45:00,
2013-01-13 17:50:00,44.8,42.0,29.94,East,81,1.1,0.0,90,0.00,SCT,,0.00,0.0,WeatherDisplay:10.37,2013-01-13 22:50:00,
2013-01-13 17:55:00,44.8,42.0,29.94,ESE,102,4.0,4.0,90,0.00,SCT,,0.00,0.0,WeatherDisplay:10.37,2013-01-13 22:55:00,
2013-01-13 18:00:00,44.6,41.8,29.94,ESE,104,3.5,3.5,90,0.00,SCT,,0.00,0.0,WeatherDisplay:10.37,2013-01-13 23:00:00,
2013-01-13 18:05:00,44.6,41.8,29.94,ESE,105,3.5,3.5,90,0.00,OVC,,0.00,0.0,WeatherDisplay:10.37,2013-01-13 23:05:00,
2013-01-13 18:10:00,44.3,41.6,29.94,ESE,107,3.5,3.5,90,0.00,OVC,,0.00,0.0,WeatherDisplay:10.37,2013-01-13 23:10:00,
2013-01-13 18:15:00,44.2,41.5,29.94,SE,145,2.3,2.3,90,0.00,OVC,,0.00,0.0,WeatherDisplay:10.37,2013-01-13 23:15:00,
2013-01-13 18:20:00,44.2,41.5,29.94,SE,145,4.0,4.0,90,0.00,OVC,,0.00,0.0,WeatherDisplay:10.37,2013-01-13 23:20:00,
2013-01-13 18:25:00,44.1,41.4,29.95,SE,139,4.0,4.0,90,0.00,OVC,,0.00,0.0,WeatherDisplay:10.37,2013-01-13 23:25:00,
2013-01-13 18:30:00,43.8,41.1,29.95,SE,139,4.0,4.0,90,0.00,OVC,,0.00,0.0,WeatherDisplay:10.37,2013-01-13 23:30:00,
2013-01-13 18:35:00,43.6,41.1,29.95,SE,139,4.0,4.0,91,0.00,OVC,,0.00,0.0,WeatherDisplay:10.37,2013-01-13 23:35:00,
2013-01-13 18:40:00,43.6,41.1,29.96,SE,130,6.0,6.0,91,0.00,OVC,,0.00,0.0,WeatherDisplay:10.37,2013-01-13 23:40:00,
2013-01-13 18:45:00,43.5,41.0,29.96,SE,131,6.9,6.9,91,0.00,OVC,,0.00,0.0,WeatherDisplay:10.37,2013-01-13 23:45:00,
2013-01-13 18:50:00,43.3,40.8,29.96,ESE,112,5.0,5.0,91,0.00,OVC,,0.00,0.0,WeatherDisplay:10.37,2013-01-13 23:50:00,
2013-01-13 18:55:00,43.3,40.8,29.95,ESE,123,4.0,4.0,91,0.00,OVC,,0.00,0.0,WeatherDisplay:10.37,2013-01-13 23:55:00,
2013-01-13 19:00:00,43.2,40.8,29.95,ESE,114,3.0,3.0,91,0.00,OVC,,0.00,0.0,WeatherDisplay:10.37,2013-01-14 00:00:00,
2013-01-13 19:05:00,43.3,40.8,29.95,ESE,105,1.0,1.0,91,0.00,OVC,,0.00,0.0,WeatherDisplay:10.37,2013-01-14 00:05:00,
2013-01-13 19:10:00,43.2,40.8,29.95,SE,127,4.0,4.0,91,0.00,OVC,,0.00,0.0,WeatherDisplay:10.37,2013-01-14 00:10:00,
2013-01-13 19:15:00,43.2,40.8,29.96,SE,136,3.5,3.5,91,0.00,OVC,,0.00,0.0,WeatherDisplay:10.37,2013-01-14 00:15:00,
2013-01-13 19:20:00,43.1,40.7,29.96,SE,133,3.5,3.5,91,0.00,OVC,,0.00,0.0,WeatherDisplay:10.37,2013-01-14 00:20:00,
2013-01-13 19:25:00,43.1,40.7,29.96,ESE,119,3.5,3.5,91,0.00,OVC,,0.00,0.0,WeatherDisplay:10.37,2013-01-14 00:25:00,
2013-01-13 19:31:00,43.1,40.9,29.94,SE,127,5.0,5.0,92,0.00,OVC,,0.00,0.0,WeatherDisplay:10.37,2013-01-14 00:31:00,
2013-01-13 19:36:00,43.3,41.1,29.94,ESE,118,3.5,3.5,92,0.00,OVC,,0.00,0.0,WeatherDisplay:10.37,2013-01-14 00:36:00,
2013-01-13 19:41:00,43.1,40.7,29.93,ESE,118,0.0,0.0,91,0.00,OVC,,0.00,0.0,WeatherDisplay:10.37,2013-01-14 00:41:00,
2013-01-13 19:46:00,42.9,40.7,29.93,ESE,118,0.0,0.0,92,0.00,OVC,,0.00,0.0,WeatherDisplay:10.37,2013-01-14 00:46:00,
2013-01-13 19:51:00,42.6,40.2,29.93,ESE,103,2.3,2.3,91,0.00,OVC,,0.00,0.0,WeatherDisplay:10.37,2013-01-14 00:51:00,
2013-01-13 19:56:00,42.1,39.7,29.92,ESE,104,2.3,2.3,91,0.00,OVC,,0.00,0.0,WeatherDisplay:10.37,2013-01-14 00:56:00,
2013-01-13 20:01:00,41.8,39.4,29.92,ESE,105,2.3,2.3,91,0.00,OVC,,0.00,0.0,WeatherDisplay:10.37,2013-01-14 01:01:00,
2013-01-13 20:06:00,41.6,39.2,29.92,ESE,112,1.1,0.0,91,0.00,OVC,,0.00,0.0,WeatherDisplay:10.37,2013-01-14 01:06:00,
2013-01-13 20:11:00,41.3,38.9,29.94,ESE,112,0.0,0.0,91,0.00,OVC,,0.00,0.0,WeatherDisplay:10.37,2013-01-14 01:11:00,
2013-01-13 20:16:00,41.3,39.2,29.94,ESE,112,0.0,0.0,92,0.00,OVC,,0.00,0.0,WeatherDisplay:10.37,2013-01-14 01:16:00,
2013-01-13 20:21:00,41.2,39.1,29.94,East,101,3.5,3.5,92,0.00,OVC,,0.00,0.0,WeatherDisplay:10.37,2013-01-14 01:21:00,
2013-01-13 20:26:00,41.9,39.7,29.92,East,80,1.1,1.1,92,0.00,OVC,,0.00,0.0,WeatherDisplay:10.37,2013-01-14 01:26:00,
2013-01-13 20:31:00,42.5,40.6,29.92,East,80,0.0,0.0,93,0.00,OVC,,0.00,0.0,WeatherDisplay:10.37,2013-01-14 01:31:00,
2013-01-13 20:36:00,42.6,40.4,29.92,East,80,2.0,2.0,92,0.00,OVC,,0.00,0.0,WeatherDisplay:10.37,2013-01-14 01:36:00,
2013-01-13 20:41:00,42.5,40.3,29.92,East,80,2.0,0.0,92,0.00,OVC,,0.00,0.0,WeatherDisplay:10.37,2013-01-14 01:41:00,
2013-01-13 20:46:00,42.5,40.6,29.92,SE,131,5.0,5.0,93,0.00,OVC,,0.00,0.0,WeatherDisplay:10.37,2013-01-14 01:46:00,
2013-01-13 20:51:00,43.1,41.2,29.92,SSE,149,4.0,4.0,93,0.00,OVC,,0.00,0.0,WeatherDisplay:10.37,2013-01-14 01:51:00,
2013-01-13 20:56:00,43.1,41.2,29.92,SSE,157,3.5,3.5,93,0.00,OVC,,0.00,0.0,WeatherDisplay:10.37,2013-01-14 01:56:00,
2013-01-13 21:01:00,42.9,41.0,29.93,SSE,156,3.5,3.5,93,0.00,OVC,,0.00,0.0,WeatherDisplay:10.37,2013-01-14 02:01:00,
2013-01-13 21:06:00,42.6,40.7,29.93,SSE,157,0.0,0.0,93,0.00,OVC,,0.00,0.0,WeatherDisplay:10.37,2013-01-14 02:06:00,
2013-01-13 21:11:00,42.2,40.0,29.93,SSE,157,0.0,0.0,92,0.00,OVC,,0.00,0.0,WeatherDisplay:10.37,2013-01-14 02:11:00,
2013-01-13 21:16:00,41.9,39.7,29.93,SSE,157,2.3,2.3,92,0.00,OVC,,0.00,0.0,WeatherDisplay:10.37,2013-01-14 02:16:00,
2013-01-13 21:21:00,42.1,40.2,29.93,SSE,157,2.0,2.0,93,0.00,OVC,,0.00,0.0,WeatherDisplay:10.37,2013-01-14 02:21:00,
2013-01-13 21:26:00,42.3,40.7,29.92,East,93,3.5,3.5,94,0.00,OVC,,0.00,0.0,WeatherDisplay:10.37,2013-01-14 02:26:00,
2013-01-13 21:31:00,43.5,41.9,29.92,SE,124,5.0,5.0,94,0.00,OVC,,0.00,0.0,WeatherDisplay:10.37,2013-01-14 02:31:00,
2013-01-13 21:36:00,43.9,42.3,29.92,ESE,113,4.0,4.0,94,0.00,OVC,,0.00,0.0,WeatherDisplay:10.37,2013-01-14 02:36:00,
2013-01-13 21:41:00,44.2,42.6,29.91,ESE,113,7.0,7.0,94,0.00,OVC,,0.00,0.0,WeatherDisplay:10.37,2013-01-14 02:41:00,
2013-01-13 21:46:00,44.3,42.4,29.91,SE,127,4.0,4.0,93,0.00,OVC,,0.00,0.0,WeatherDisplay:10.37,2013-01-14 02:46:00,
2013-01-13 21:51:00,44.3,42.7,29.91,SE,139,5.0,5.0,94,0.00,OVC,,0.00,0.0,WeatherDisplay:10.37,2013-01-14 02:51:00,
2013-01-13 21:56:00,44.2,42.3,29.92,South,183,3.5,3.5,93,0.00,OVC,,0.00,0.0,WeatherDisplay:10.37,2013-01-14 02:56:00,
2013-01-13 22:01:00,43.5,41.6,29.92,West,260,3.5,3.5,93,0.00,OVC,,0.00,0.0,WeatherDisplay:10.37,2013-01-14 03:01:00,
2013-01-13 22:06:00,43.1,40.9,29.92,West,260,1.0,0.0,92,0.00,OVC,,0.00,0.0,WeatherDisplay:10.37,2013-01-14 03:06:00,
2013-01-13 22:11:00,42.5,40.6,29.92,West,260,2.3,2.3,93,0.00,OVC,,0.00,0.0,WeatherDisplay:10.37,2013-01-14 03:11:00,
2013-01-13 22:16:00,42.6,41.0,29.91,NE,50,5.0,5.0,94,0.00,OVC,,0.00,0.0,WeatherDisplay:10.37,2013-01-14 03:16:00,
2013-01-13 22:21:00,43.9,42.3,29.91,NE,53,4.0,4.0,94,0.00,OVC,,0.00,0.0,WeatherDisplay:10.37,2013-01-14 03:21:00,
2013-01-13 22:26:00,44.3,42.7,29.91,North,9,3.5,3.5,94,0.00,OVC,,0.00,0.0,WeatherDisplay:10.37,2013-01-14 03:26:00,
2013-01-13 22:31:00,44.2,42.3,29.91,North,2,1.1,1.1,93,0.00,OVC,,0.00,0.0,WeatherDisplay:10.37,2013-01-14 03:31:00,
2013-01-13 22:36:00,43.9,42.3,29.91,East,87,2.3,2.3,94,0.00,OVC,,0.00,0.0,WeatherDisplay:10.37,2013-01-14 03:36:00,
2013-01-13 22:41:00,44.1,42.5,29.91,East,86,1.1,1.1,94,0.00,OVC,,0.00,0.0,WeatherDisplay:10.37,2013-01-14 03:41:00,
2013-01-13 22:46:00,43.8,41.9,29.91,East,86,0.0,0.0,93,0.00,OVC,,0.00,0.0,WeatherDisplay:10.37,2013-01-14 03:46:00,
2013-01-13 22:51:00,43.2,41.3,29.91,East,87,3.5,3.5,93,0.00,OVC,,0.00,0.0,WeatherDisplay:10.37,2013-01-14 03:51:00,
2013-01-13 22:56:00,43.1,41.2,29.91,East,87,1.1,0.0,93,0.00,OVC,,0.00,0.0,WeatherDisplay:10.37,2013-01-14 03:56:00,
2013-01-13 23:01:00,43.1,41.2,29.91,East,87,0.0,0.0,93,0.00,OVC,,0.00,0.0,WeatherDisplay:10.37,2013-01-14 04:01:00,
2013-01-13 23:06:00,43.1,41.2,29.91,East,87,2.0,2.0,93,0.00,OVC,,0.00,0.0,WeatherDisplay:10.37,2013-01-14 04:06:00,
2013-01-13 23:11:00,43.2,41.6,29.89,East,86,3.5,3.5,94,0.00,OVC,,0.00,0.0,WeatherDisplay:10.37,2013-01-14 04:11:00,
2013-01-13 23:16:00,43.6,42.0,29.89,East,85,1.1,1.1,94,0.00,OVC,,0.00,0.0,WeatherDisplay:10.37,2013-01-14 04:16:00,
2013-01-13 23:21:00,43.6,42.0,29.89,ENE,59,4.0,4.0,94,0.00,OVC,,0.00,0.0,WeatherDisplay:10.37,2013-01-14 04:21:00,
2013-01-13 23:26:00,43.6,42.0,29.89,ENE,61,1.0,0.0,94,0.00,OVC,,0.00,0.0,WeatherDisplay:10.37,2013-01-14 04:26:00,
2013-01-13 23:31:00,43.6,42.0,29.89,SE,135,2.3,2.3,94,0.00,OVC,,0.00,0.0,WeatherDisplay:10.37,2013-01-14 04:31:00,
2013-01-13 23:36:00,43.3,41.4,29.89,SE,127,4.0,4.0,93,0.00,OVC,,0.00,0.0,WeatherDisplay:10.37,2013-01-14 04:36:00,
2013-01-13 23:41:00,43.6,42.0,29.89,East,99,4.6,4.6,94,0.00,OVC,,0.00,0.0,WeatherDisplay:10.37,2013-01-14 04:41:00,
2013-01-13 23:46:00,43.9,42.3,29.89,East,81,4.0,4.0,94,0.00,OVC,,0.00,0.0,WeatherDisplay:10.37,2013-01-14 04:46:00,
2013-01-13 23:51:00,43.9,42.3,29.89,East,81,1.1,1.1,94,0.00,OVC,,0.00,0.0,WeatherDisplay:10.37,2013-01-14 04:51:00,
2013-01-13 23:56:00,43.9,42.3,29.88,East,81,2.3,2.3,94,0.00,OVC,,0.00,0.0,WeatherDisplay:10.37,2013-01-14 04:56:00,